Stratford, Connecticut
Current Conditions -  °F | °C
As of 2:52 AM on Monday 22 Dec 2014 (Local Time) from KBDR Reporting Station
Overcast Overcast  
Wind Chill: 30°   Ceiling: 2300
Heat Index: 36°   Visibility: 10mi
Dew Point: 33°   Wind: 7mph
Humidity: 89%   Direction: 30°NNE
Pressure: 30.33"   Gusts: NA
Location:  41.2°N, 73.13°W
Report Text: KBDR 220752Z AUTO 03006KT 10SM BKN023 OVC028 02/01 A3033 RMK AO2 RAB33E44 SLP270 P0000 T00220006 TSNO
Loading
Personal Weather Stations






























Interactive Weather Map New forecast layout! Learn more

10-Day Weather Forecast

Advertisements
Track Severe Weather on mobile